Time;durP1;ratioP1;P1;durP2;ratioP2;P2;SDS_P1;SDS_P2;PMS_P1;PMS_P2;Temp;Humidity;BMP_temperature;BMP_pressure;BME280_temperature;BME280_humidity;BME280_pressure;Samples;Min_cycle;Max_cycle;Signal;HPM_P1;HPM_P2
2021/04/19 00:03:46;;;;;;;21.08;15.55;;;;;;;8.50;63.17;97950.66;10038088;29;20049;-74
2021/04/19 00:09:06;;;;;;;23.20;15.13;;;;;;;8.47;63.25;97951.06;10050377;29;20045;-74
2021/04/19 00:14:25;;;;;;;22.48;15.98;;;;;;;8.42;63.18;97938.88;10050334;29;20048;-74
2021/04/19 00:19:45;;;;;;;19.38;14.55;;;;;;;8.39;63.54;97937.25;10037112;29;20049;-74
2021/04/19 00:25:06;;;;;;;25.33;16.10;;;;;;;8.38;63.80;97935.78;10037396;29;20054;-74
2021/04/19 00:30:26;;;;;;;20.70;15.32;;;;;;;8.38;63.96;97940.59;10024291;29;20057;-74
2021/04/19 00:35:45;;;;;;;20.77;15.15;;;;;;;8.36;64.06;97926.53;10049784;29;20037;-74
2021/04/19 00:41:05;;;;;;;21.92;15.82;;;;;;;8.37;63.89;97933.56;10036683;29;20423;-74
2021/04/19 00:46:25;;;;;;;21.33;16.10;;;;;;;8.38;64.33;97923.91;10023589;29;20045;-74
2021/04/19 00:51:45;;;;;;;21.88;16.27;;;;;;;8.36;64.15;97924.50;10023076;29;20065;-74
2021/04/19 00:57:05;;;;;;;23.17;14.63;;;;;;;8.32;64.52;97922.13;10035925;29;20041;-74
2021/04/19 01:02:26;;;;;;;24.17;16.00;;;;;;;8.32;64.70;97927.69;10035415;29;20054;-74
2021/04/19 01:07:46;;;;;;;20.35;15.13;;;;;;;8.30;64.59;97921.97;10035697;29;20046;-74
2021/04/19 01:13:09;;;;;;;24.30;16.08;;;;;;;8.29;64.86;97925.28;10036007;29;20053;-74
2021/04/19 01:18:28;;;;;;;20.38;15.18;;;;;;;8.29;64.97;97923.25;10034852;29;20114;-74
2021/04/19 01:23:50;;;;;;;23.45;16.48;;;;;;;8.29;64.85;97931.59;10034991;29;20052;-75
2021/04/19 01:29:14;;;;;;;21.45;15.23;;;;;;;8.27;65.02;97928.66;10047390;29;20378;-75
2021/04/19 01:34:34;;;;;;;22.00;15.13;;;;;;;8.28;65.13;97926.59;10035548;29;20049;-74
2021/04/19 01:39:54;;;;;;;21.63;14.30;;;;;;;8.27;65.48;97925.88;10022193;29;20041;-74
2021/04/19 01:45:16;;;;;;;21.63;15.48;;;;;;;8.27;65.41;97917.53;10034520;29;20045;-75
2021/04/19 01:50:36;;;;;;;24.00;16.15;;;;;;;8.29;65.49;97914.16;10020968;29;20092;-74
2021/04/19 01:55:56;;;;;;;22.80;16.15;;;;;;;8.23;65.25;97919.25;10034740;29;20046;-74
2021/04/19 02:01:16;;;;;;;22.25;15.82;;;;;;;8.18;65.84;97923.03;10046908;29;20504;-74
2021/04/19 02:07:18;;;;;;;24.13;16.48;;;;;;;8.12;65.82;97917.72;10032713;29;20397;-74
2021/04/19 02:13:05;;;;;;;21.92;15.70;;;;;;;8.02;66.04;97914.16;9855625;30;20059;-75
2021/04/19 02:18:46;;;;;;;25.38;16.52;;;;;;;7.94;66.01;97914.22;10057252;29;20497;-74
2021/04/19 02:24:10;;;;;;;24.02;17.13;;;;;;;7.83;66.43;97916.78;10034432;29;20046;-75
2021/04/19 02:29:39;;;;;;;22.77;17.10;;;;;;;7.74;66.38;97916.13;10020560;29;20053;-74
2021/04/19 02:35:06;;;;;;;21.27;16.00;;;;;;;7.69;66.45;97908.00;10021558;29;20497;-74
2021/04/19 02:40:27;;;;;;;24.80;17.05;;;;;;;7.62;66.92;97909.56;10020092;29;20041;-74
2021/04/19 02:45:47;;;;;;;24.77;17.42;;;;;;;7.57;67.00;97910.53;10032716;29;20054;-74
2021/04/19 02:51:11;;;;;;;27.67;17.23;;;;;;;7.54;66.92;97914.47;10033074;29;20095;-75
2021/04/19 02:56:33;;;;;;;25.45;18.25;;;;;;;7.57;67.19;97912.59;10019524;29;20367;-74
2021/04/19 03:02:01;;;;;;;27.67;17.95;;;;;;;7.56;66.98;97928.53;10019755;29;20050;-74
2021/04/19 03:07:25;;;;;;;29.88;18.92;;;;;;;7.57;67.15;97920.91;10020555;29;20397;-74
2021/04/19 03:12:51;;;;;;;28.20;18.60;;;;;;;7.55;66.94;97918.72;10019972;29;20159;-74
2021/04/19 03:18:12;;;;;;;28.40;18.65;;;;;;;7.55;67.18;97918.72;10024712;29;20402;-75
2021/04/19 03:23:48;;;;;;;28.40;19.45;;;;;;;7.52;67.08;97919.84;10029642;29;20049;-74
2021/04/19 03:29:15;;;;;;;26.88;18.77;;;;;;;7.53;67.38;97926.88;10040951;29;20558;-74
2021/04/19 03:34:46;;;;;;;28.67;18.80;;;;;;;7.51;67.22;97926.69;10041668;29;20049;-74
2021/04/19 03:40:33;;;;;;;29.55;18.27;;;;;;;7.53;67.55;97929.66;10026850;29;20107;-74
2021/04/19 03:45:55;;;;;;;26.30;18.83;;;;;;;7.54;67.73;97919.28;10026441;29;20050;-74
2021/04/19 03:51:18;;;;;;;26.58;18.25;;;;;;;7.53;67.19;97926.88;10038947;29;20058;-74
2021/04/19 03:56:45;;;;;;;28.05;18.65;;;;;;;7.52;67.67;97925.41;10038367;29;20188;-74
2021/04/19 04:02:15;;;;;;;26.60;18.95;;;;;;;7.46;67.52;97922.13;10038465;29;20058;-74
2021/04/19 04:08:00;;;;;;;26.52;18.10;;;;;;;7.42;67.60;97919.00;10053490;29;20045;-75
2021/04/19 04:13:21;;;;;;;26.97;18.57;;;;;;;7.42;67.53;97930.13;10037399;29;20094;-75
2021/04/19 04:18:42;;;;;;;27.35;18.83;;;;;;;7.41;67.60;97931.44;10024752;29;20041;-75
2021/04/19 04:24:05;;;;;;;29.08;17.90;;;;;;;7.42;67.59;97919.00;10025037;29;20045;-74
2021/04/19 04:29:26;;;;;;;29.48;18.23;;;;;;;7.45;67.65;97929.72;10036473;29;20076;-74
2021/04/19 04:35:05;;;;;;;25.45;17.75;;;;;;;7.53;67.49;97935.22;10041421;29;20046;-74
2021/04/19 04:40:29;;;;;;;;;;;;;;;7.55;67.55;97938.16;10025307;29;20045;-74
2021/04/19 04:45:54;;;;;;;28.77;18.67;;;;;;;7.59;67.50;97934.97;10036247;29;19928;-74
2021/04/19 04:51:19;;;;;;;27.75;17.52;;;;;;;7.71;67.21;97944.28;10036174;29;20072;-73
2021/04/19 04:56:42;;;;;;;26.60;18.35;;;;;;;7.84;67.00;97941.22;10023474;29;20477;-74
2021/04/19 05:02:02;;;;;;;25.80;17.77;;;;;;;8.00;67.39;97947.31;10022779;29;20053;-74
2021/04/19 05:07:22;;;;;;;26.33;17.75;;;;;;;8.13;67.42;97937.94;10048364;29;20052;-74
2021/04/19 05:12:42;;;;;;;27.05;18.02;;;;;;;8.25;67.39;97945.19;10035162;29;20051;-74
2021/04/19 05:18:01;;;;;;;25.13;18.08;;;;;;;8.42;67.10;97943.72;10034825;29;20501;-74
2021/04/19 05:23:21;;;;;;;27.80;17.45;;;;;;;8.51;66.23;97945.81;10047682;29;20508;-74
2021/04/19 05:28:41;;;;;;;23.45;16.95;;;;;;;8.63;66.53;97946.78;10034709;29;20049;-74
2021/04/19 05:34:01;;;;;;;25.50;17.27;;;;;;;8.83;66.84;97945.56;10035002;29;20041;-75
2021/04/19 05:39:20;;;;;;;29.23;18.63;;;;;;;9.02;66.36;97949.75;10033322;29;20140;-75
2021/04/19 05:44:42;;;;;;;27.40;17.58;;;;;;;9.27;65.91;97944.72;10021837;29;20041;-75
2021/04/19 05:50:02;;;;;;;28.50;17.88;;;;;;;9.55;65.22;97942.56;10034271;29;20061;-76
2021/04/19 05:55:24;;;;;;;28.08;18.13;;;;;;;9.70;65.25;97937.47;10033922;29;20074;-75
2021/04/19 06:01:04;;;;;;;26.13;18.05;;;;;;;9.78;64.54;97940.13;10020911;29;20056;-74
2021/04/19 06:06:46;;;;;;;24.40;17.83;;;;;;;9.80;64.21;97945.84;10022411;29;20057;-75
2021/04/19 06:12:21;;;;;;;25.55;17.30;;;;;;;9.78;64.34;97951.28;10024242;29;20050;-74
2021/04/19 06:17:50;;;;;;;23.92;16.73;;;;;;;9.82;64.02;97948.78;10022131;29;20068;-76
2021/04/19 06:23:10;;;;;;;26.08;18.63;;;;;;;9.92;64.02;97955.09;10032731;29;20045;-73
2021/04/19 06:28:30;;;;;;;24.00;17.20;;;;;;;10.09;63.78;97962.59;10032845;29;20501;-75
2021/04/19 06:34:07;;;;;;;25.63;17.58;;;;;;;10.35;63.66;97955.41;10033131;29;20045;-73
2021/04/19 06:39:27;;;;;;;24.30;17.55;;;;;;;10.50;62.51;97957.88;10032657;29;20049;-73
2021/04/19 06:44:47;;;;;;;25.27;16.20;;;;;;;10.49;63.09;97961.28;10032458;29;20052;-75
2021/04/19 06:50:08;;;;;;;23.80;16.60;;;;;;;10.52;62.17;97960.84;10032469;29;20068;-75
2021/04/19 06:55:27;;;;;;;22.65;16.23;;;;;;;10.43;62.10;97956.00;10019951;29;20102;-72
2021/04/19 07:00:48;;;;;;;22.15;15.20;;;;;;;10.45;62.24;97963.78;10058476;29;20042;-73
2021/04/19 07:06:09;;;;;;;20.25;14.68;;;;;;;10.48;62.25;97957.75;10032195;29;20068;-73
2021/04/19 07:11:30;;;;;;;18.90;13.27;;;;;;;10.64;61.91;97957.44;10031416;29;20053;-75
2021/04/19 07:16:50;;;;;;;20.38;14.73;;;;;;;10.86;61.55;97959.00;10032072;29;20045;-74
2021/04/19 07:22:11;;;;;;;20.95;13.73;;;;;;;10.92;61.36;97953.84;10018820;29;20504;-74
2021/04/19 07:27:31;;;;;;;21.42;13.50;;;;;;;11.00;60.93;97951.59;10031340;29;20045;-74
2021/04/19 07:32:50;;;;;;;20.92;14.85;;;;;;;11.09;60.23;97956.41;10031334;29;20057;-75
2021/04/19 07:38:13;;;;;;;23.13;14.30;;;;;;;11.08;59.64;97960.53;10037986;29;20497;-75
2021/04/19 07:43:36;;;;;;;19.17;13.52;;;;;;;11.02;59.39;97960.13;10058579;29;20037;-75
2021/04/19 07:48:56;;;;;;;21.52;13.98;;;;;;;10.98;59.28;97954.25;10045496;29;20060;-75
2021/04/19 07:54:25;;;;;;;18.00;13.43;;;;;;;11.11;59.07;97956.56;10046212;29;20053;-75
2021/04/19 07:59:45;;;;;;;20.17;14.10;;;;;;;11.12;58.27;97958.03;10060370;29;20496;-75
2021/04/19 08:05:08;;;;;;;22.02;14.40;;;;;;;11.14;58.73;97963.75;10065267;29;20045;-75
2021/04/19 08:10:29;;;;;;;19.23;13.93;;;;;;;11.38;58.23;97959.06;10043739;29;20053;-75
2021/04/19 08:15:49;;;;;;;20.05;14.30;;;;;;;11.77;57.49;97964.44;10058857;29;20045;-75
2021/04/19 08:21:08;;;;;;;19.55;14.35;;;;;;;12.24;57.13;97953.53;10067152;29;20109;-75
2021/04/19 08:26:55;;;;;;;19.95;13.85;;;;;;;12.90;56.86;97956.28;10049194;29;20049;-74
2021/04/19 08:32:22;;;;;;;17.92;13.98;;;;;;;14.04;55.80;97963.78;10052082;29;20053;-73
2021/04/19 08:37:44;;;;;;;19.73;13.88;;;;;;;16.40;54.09;97964.25;10037351;29;20045;-74
2021/04/19 08:43:11;;;;;;;16.77;13.60;;;;;;;20.41;51.13;97948.59;10051222;29;20046;-75
2021/04/19 08:48:31;;;;;;;17.98;12.07;;;;;;;22.28;45.60;97966.06;10050066;29;20057;-73
2021/04/19 08:53:51;;;;;;;16.48;10.65;;;;;;;24.03;40.57;97957.75;10063826;29;20414;-75
2021/04/19 08:59:11;;;;;;;13.18;10.38;;;;;;;23.27;37.54;97957.69;10052561;29;20132;-75
2021/04/19 09:04:31;;;;;;;12.60;10.10;;;;;;;22.30;35.80;97954.03;10030230;29;20404;-75
2021/04/19 09:09:51;;;;;;;13.20;10.60;;;;;;;21.92;35.60;97945.25;10051669;29;20050;-77
2021/04/19 09:15:18;;;;;;;14.07;10.57;;;;;;;22.75;34.14;97952.97;10051257;29;20636;-75
2021/04/19 09:20:50;;;;;;;11.90;10.10;;;;;;;25.48;31.10;97949.25;10045814;29;20109;-75
2021/04/19 09:26:10;;;;;;;13.25;10.60;;;;;;;27.82;26.98;97950.28;10047229;29;20409;-74
2021/04/19 09:32:03;;;;;;;10.25;9.15;;;;;;;27.16;25.67;97946.44;10034183;29;20050;-73
2021/04/19 09:37:54;;;;;;;9.25;8.25;;;;;;;23.93;25.76;97943.31;10060373;29;20481;-74
2021/04/19 09:43:37;;;;;;;10.98;9.05;;;;;;;21.03;27.01;97927.13;10040372;29;20507;-74
2021/04/19 09:49:06;;;;;;;10.35;9.07;;;;;;;19.75;28.67;97940.03;10066189;29;20053;-73
2021/04/19 09:54:26;;;;;;;10.82;8.73;;;;;;;19.27;29.36;97928.41;10073713;29;20105;-75
2021/04/19 09:59:45;;;;;;;12.15;10.43;;;;;;;18.41;30.08;97924.44;10071283;29;20045;-74
2021/04/19 10:05:06;;;;;;;9.27;8.15;;;;;;;19.56;30.66;97923.78;10058232;29;20045;-73
2021/04/19 10:10:26;;;;;;;8.68;7.30;;;;;;;22.57;27.28;97921.97;10045348;29;20048;-74
2021/04/19 10:15:46;;;;;;;9.98;8.25;;;;;;;21.74;26.38;97913.50;10075279;29;20101;-75
2021/04/19 10:21:08;;;;;;;9.70;8.13;;;;;;;20.03;27.73;97911.94;10056176;29;20081;-75
2021/04/19 10:26:51;;;;;;;8.90;7.88;;;;;;;21.22;27.11;97917.03;10056760;29;20037;-74
2021/04/19 10:32:11;;;;;;;8.55;7.60;;;;;;;21.79;26.72;97907.25;10008353;29;20062;-74
2021/04/19 10:37:31;;;;;;;9.05;7.15;;;;;;;22.06;25.94;97905.06;10016175;29;20053;-74
2021/04/19 10:42:51;;;;;;;10.57;8.60;;;;;;;20.82;25.65;97905.94;10003132;29;20126;-75
2021/04/19 10:48:22;;;;;;;8.40;7.40;;;;;;;20.44;26.46;97893.44;10002856;29;20110;-74
2021/04/19 10:53:42;;;;;;;10.50;7.35;;;;;;;20.90;26.46;97890.56;10011390;29;20041;-74
2021/04/19 10:59:06;;;;;;;10.55;8.35;;;;;;;21.04;26.20;97885.31;10007346;29;20106;-74
2021/04/19 11:04:26;;;;;;;9.65;7.80;;;;;;;20.44;26.32;97887.75;10044487;29;20105;-74
2021/04/19 11:09:45;;;;;;;10.75;8.15;;;;;;;20.95;25.85;97886.47;10031650;29;20046;-74
2021/04/19 11:15:12;;;;;;;8.10;6.85;;;;;;;22.16;24.83;97885.47;10044292;29;20046;-74
2021/04/19 11:20:32;;;;;;;7.65;6.70;;;;;;;22.52;24.60;97877.78;10034716;29;20177;-74
2021/04/19 11:25:53;;;;;;;9.75;7.63;;;;;;;22.32;24.33;97876.59;10047637;29;20049;-75
2021/04/19 11:31:16;;;;;;;10.60;8.13;;;;;;;21.42;24.68;97872.22;10058858;29;20121;-74
2021/04/19 11:36:45;;;;;;;9.80;8.13;;;;;;;20.49;25.31;97875.19;10065789;29;20041;-74
2021/04/19 11:42:25;;;;;;;8.63;7.22;;;;;;;19.70;25.21;97868.41;10063284;29;20049;-74
2021/04/19 11:47:45;;;;;;;9.20;7.80;;;;;;;19.73;25.88;97864.25;10065633;29;20541;-75
2021/04/19 11:53:06;;;;;;;9.73;8.43;;;;;;;19.39;25.87;97875.06;10037727;29;20109;-75
2021/04/19 11:58:26;;;;;;;9.82;8.45;;;;;;;18.54;26.33;97867.03;10049625;29;20046;-74
2021/04/19 12:03:46;;;;;;;11.02;8.90;;;;;;;17.38;27.82;97861.59;10052678;29;20037;-74
2021/04/19 12:09:06;;;;;;;10.55;8.85;;;;;;;16.90;28.52;97863.03;10052735;29;20053;-74
2021/04/19 12:14:27;;;;;;;13.48;9.10;;;;;;;16.99;28.78;97857.09;10053715;29;20410;-74
2021/04/19 12:19:46;;;;;;;11.35;9.05;;;;;;;17.14;29.33;97861.25;10039285;29;20069;-75
2021/04/19 12:25:06;;;;;;;11.20;9.45;;;;;;;17.64;28.92;97857.03;10052048;29;20485;-75
2021/04/19 12:30:28;;;;;;;9.98;8.50;;;;;;;17.51;29.15;97857.19;10053288;29;20057;-74
2021/04/19 12:35:47;;;;;;;9.98;8.00;;;;;;;17.16;29.53;97853.59;10051712;29;20499;-75
2021/04/19 12:41:07;;;;;;;9.70;7.90;;;;;;;16.88;29.83;97850.25;10064424;29;20045;-74
2021/04/19 12:46:27;;;;;;;11.65;8.88;;;;;;;16.54;30.73;97849.41;10056609;29;20041;-74
2021/04/19 12:51:48;;;;;;;13.75;9.82;;;;;;;15.68;33.15;97844.66;10063833;29;20489;-74
2021/04/19 12:57:07;;;;;;;13.10;9.65;;;;;;;14.84;34.36;97853.00;10049785;29;20101;-74
2021/04/19 13:02:27;;;;;;;10.55;8.57;;;;;;;14.27;33.92;97847.13;10052378;29;20045;-73
2021/04/19 13:07:48;;;;;;;9.32;8.15;;;;;;;14.05;35.75;97860.66;10049296;29;20453;-73
2021/04/19 13:13:08;;;;;;;9.90;8.05;;;;;;;13.95;36.33;97857.28;10044477;29;20049;-74
2021/04/19 13:18:28;;;;;;;9.57;7.38;;;;;;;13.92;36.37;97845.25;10049164;29;20049;-74
2021/04/19 13:23:47;;;;;;;9.75;6.95;;;;;;;13.95;37.55;97837.66;10049676;29;20074;-75
2021/04/19 13:29:07;;;;;;;9.52;6.53;;;;;;;14.06;37.33;97841.75;10051325;29;20048;-74
2021/04/19 13:34:27;;;;;;;8.70;7.10;;;;;;;14.15;37.22;97833.16;10065865;29;20049;-74
2021/04/19 13:39:47;;;;;;;9.05;6.80;;;;;;;13.98;37.89;97839.22;10062266;29;20628;-74
2021/04/19 13:45:12;;;;;;;10.32;7.80;;;;;;;13.90;38.26;97841.59;10049044;29;20443;-74
2021/04/19 13:50:33;;;;;;;10.48;7.80;;;;;;;13.66;38.33;97835.31;10038622;29;20524;-74
2021/04/19 13:55:52;;;;;;;9.55;7.88;;;;;;;13.35;39.07;97830.78;10050131;29;20037;-74
2021/04/19 14:01:12;;;;;;;9.98;8.00;;;;;;;12.88;39.85;97828.00;10049831;29;20096;-73
2021/04/19 14:06:32;;;;;;;10.05;7.95;;;;;;;12.52;40.56;97823.00;10049332;29;20046;-74
2021/04/19 14:11:52;;;;;;;12.40;9.05;;;;;;;12.23;41.17;97815.66;10061537;29;20054;-74
2021/04/19 14:17:11;;;;;;;9.82;8.00;;;;;;;12.12;41.77;97816.38;10049909;29;20457;-74
2021/04/19 14:22:31;;;;;;;9.68;7.93;;;;;;;11.87;41.93;97802.19;10079080;29;20052;-73
2021/04/19 14:27:51;;;;;;;10.00;7.72;;;;;;;11.76;42.12;97804.31;10070699;29;20052;-73
2021/04/19 14:33:11;;;;;;;11.68;8.13;;;;;;;11.69;43.36;97804.53;10070466;29;20197;-74
2021/04/19 14:38:31;;;;;;;12.43;8.13;;;;;;;11.60;42.97;97786.50;10070158;29;20045;-74
2021/04/19 14:43:50;;;;;;;10.40;7.90;;;;;;;11.53;43.51;97801.44;10070153;29;20052;-74
2021/04/19 14:49:10;;;;;;;9.95;8.00;;;;;;;11.51;44.25;97798.50;10070110;29;20087;-74
2021/04/19 14:54:30;;;;;;;11.63;8.52;;;;;;;11.46;45.66;97800.28;10070002;29;20500;-73
2021/04/19 14:59:50;;;;;;;15.50;10.57;;;;;;;11.28;48.06;97807.47;10069455;29;20048;-74
2021/04/19 15:05:11;;;;;;;18.58;11.93;;;;;;;11.08;47.98;97806.16;10069968;29;20417;-75
2021/04/19 15:10:32;;;;;;;16.88;11.93;;;;;;;10.83;48.23;97803.81;10057206;29;20048;-75
2021/04/19 15:15:52;;;;;;;15.25;11.60;;;;;;;10.75;48.83;97800.47;10090573;29;20556;-76
2021/04/19 15:21:13;;;;;;;16.60;12.75;;;;;;;10.66;50.88;97801.25;10077352;29;20045;-76
2021/04/19 15:26:33;;;;;;;17.52;12.30;;;;;;;10.67;51.33;97799.91;10064291;29;20140;-75
2021/04/19 15:31:52;;;;;;;17.08;11.30;;;;;;;10.65;49.54;97799.78;10077167;29;20049;-75
2021/04/19 15:37:16;;;;;;;14.48;11.70;;;;;;;10.68;50.40;97798.59;10063832;29;20045;-76
2021/04/19 15:42:36;;;;;;;17.75;12.55;;;;;;;10.61;51.70;97797.44;10077203;29;20052;-76
2021/04/19 15:47:55;;;;;;;16.33;11.45;;;;;;;10.74;50.92;97791.38;10063338;29;20057;-76
2021/04/19 15:53:15;;;;;;;15.57;12.00;;;;;;;10.80;51.33;97786.16;10063474;29;20117;-76
2021/04/19 15:58:35;;;;;;;15.80;11.60;;;;;;;10.76;51.34;97790.75;10076472;29;20089;-76
2021/04/19 16:03:55;;;;;;;18.67;12.00;;;;;;;10.78;51.45;97788.09;10076108;29;20068;-75
2021/04/19 16:09:15;;;;;;;15.55;11.48;;;;;;;10.81;51.28;97789.72;8844996;29;10001653;-75
2021/04/19 16:19:05;;;;;;;16.45;12.20;;;;;;;10.81;52.96;97781.34;10524694;27;20375;-74
2021/04/19 16:24:25;;;;;;;15.65;11.93;;;;;;;10.71;52.49;97780.63;10464582;28;20049;-75
2021/04/19 16:29:45;;;;;;;22.33;12.93;;;;;;;10.68;52.64;97767.88;10463463;28;20048;-75
2021/04/19 16:35:06;;;;;;;18.38;12.00;;;;;;;10.71;52.74;97767.44;9960537;28;13227397;-77
2021/04/19 16:40:27;;;;;;;18.65;12.65;;;;;;;10.68;53.00;97759.50;10477189;28;20120;-74
2021/04/19 16:45:50;;;;;;;15.90;11.82;;;;;;;10.59;53.64;97753.38;10463495;28;20049;-76
2021/04/19 16:51:12;;;;;;;16.92;11.70;;;;;;;10.50;53.19;97762.53;10477077;28;20037;-75
2021/04/19 16:56:34;;;;;;;18.30;12.00;;;;;;;10.46;53.30;97755.94;10463019;28;20537;-76
2021/04/19 17:01:54;;;;;;;17.92;12.68;;;;;;;10.39;53.64;97749.22;10489783;28;20041;-75
2021/04/19 17:07:17;;;;;;;15.27;11.80;;;;;;;10.20;53.96;97757.63;10475799;28;20048;-74
2021/04/19 17:12:38;;;;;;;18.05;12.57;;;;;;;10.08;54.15;97751.22;10475719;28;20040;-75
2021/04/19 17:17:58;;;;;;;17.50;13.13;;;;;;;9.90;54.69;97756.25;10474007;28;20480;-76
2021/04/19 17:23:19;;;;;;;18.13;12.73;;;;;;;9.71;54.42;97757.75;10445435;28;20045;-75
2021/04/19 17:28:41;;;;;;;17.50;12.13;;;;;;;9.59;54.97;97753.38;10441775;28;20041;-75
2021/04/19 17:34:03;;;;;;;19.45;13.10;;;;;;;9.48;55.36;97765.13;10432889;28;20033;-74
2021/04/19 17:39:25;;;;;;;16.90;13.10;;;;;;;9.31;55.67;97757.66;10450118;28;20052;-76
2021/04/19 17:44:46;;;;;;;18.30;12.35;;;;;;;9.18;55.73;97762.34;10459154;28;20052;-75
2021/04/19 17:50:10;;;;;;;19.55;12.77;;;;;;;9.02;55.95;97766.72;10459067;28;20045;-75
2021/04/19 17:55:30;;;;;;;19.10;12.65;;;;;;;8.92;56.52;97762.44;10445951;28;20045;-73
2021/04/19 18:00:50;;;;;;;18.00;13.65;;;;;;;8.84;56.71;97777.22;10459161;28;20055;-76
2021/04/19 18:06:11;;;;;;;18.40;13.55;;;;;;;8.75;57.04;97780.00;10459740;28;20052;-74
2021/04/19 18:11:31;;;;;;;20.42;13.35;;;;;;;8.64;57.04;97772.19;10458634;28;20056;-75
2021/04/19 18:16:51;;;;;;;19.92;13.75;;;;;;;8.56;57.43;97777.88;10458399;28;20049;-76
2021/04/19 18:22:14;;;;;;;19.15;13.50;;;;;;;8.51;57.82;97778.91;10458797;28;20045;-75
2021/04/19 18:27:34;;;;;;;16.85;12.93;;;;;;;8.44;57.98;97788.09;10444350;28;20419;-76
2021/04/19 18:33:00;;;;;;;19.35;13.98;;;;;;;8.39;58.15;97783.53;10458919;28;20406;-76
2021/04/19 18:38:21;;;;;;;21.73;14.27;;;;;;;8.42;58.77;97779.59;10458401;28;20049;-76
2021/04/19 18:43:41;;;;;;;18.98;13.05;;;;;;;8.56;58.49;97789.00;10433332;28;20110;-75
2021/04/19 18:49:05;;;;;;;22.15;13.32;;;;;;;8.75;58.23;97793.91;10403831;28;20049;-72
2021/04/19 18:54:26;;;;;;;23.33;14.57;;;;;;;8.73;58.25;97786.13;10406741;28;20041;-75
2021/04/19 18:59:46;;;;;;;20.67;14.63;;;;;;;8.67;58.73;97777.31;10403646;28;20041;-76
2021/04/19 19:05:09;;;;;;;20.25;14.65;;;;;;;8.63;58.69;97777.03;10402020;28;20476;-75
2021/04/19 19:10:30;;;;;;;19.63;15.10;;;;;;;8.63;59.13;97787.44;10429534;28;20041;-76
2021/04/19 19:15:51;;;;;;;20.75;14.57;;;;;;;8.80;58.88;97790.84;10416372;28;20068;-74
2021/04/19 19:21:16;;;;;;;21.55;15.50;;;;;;;8.98;58.83;97788.69;10415183;28;20045;-74
2021/04/19 19:26:36;;;;;;;;;;;;;;;9.12;59.07;97789.00;10402808;28;20052;-76
2021/04/19 19:31:57;;;;;;;22.27;14.27;;;;;;;9.25;58.51;97788.56;10455754;28;19932;-74
2021/04/19 19:37:18;;;;;;;22.27;15.90;;;;;;;9.38;58.52;97795.78;10455475;28;20044;-76
2021/04/19 19:42:38;;;;;;;22.23;15.40;;;;;;;9.53;58.58;97786.38;10441508;28;20084;-75
2021/04/19 19:47:59;;;;;;;21.67;15.40;;;;;;;9.63;58.45;97787.84;10413775;28;20459;-75
2021/04/19 19:53:20;;;;;;;20.88;15.25;;;;;;;9.70;57.91;97786.94;10400442;28;20079;-74
2021/04/19 19:58:40;;;;;;;20.23;14.88;;;;;;;9.80;58.16;97778.56;10399742;28;20041;-74
2021/04/19 20:04:02;;;;;;;22.33;15.60;;;;;;;9.87;58.27;97774.91;10427358;28;20867;-74
2021/04/19 20:09:23;;;;;;;23.33;16.27;;;;;;;9.88;57.95;97779.16;10441125;28;20041;-76
2021/04/19 20:14:44;;;;;;;22.58;15.57;;;;;;;9.93;58.29;97772.53;10426592;28;20083;-74
2021/04/19 20:20:06;;;;;;;22.50;15.57;;;;;;;9.97;57.96;97769.31;10427668;28;20048;-75
2021/04/19 20:25:27;;;;;;;24.52;16.15;;;;;;;9.99;58.36;97772.97;10443162;28;20427;-75
2021/04/19 20:30:48;;;;;;;22.15;16.05;;;;;;;9.97;58.27;97767.25;10456530;28;20116;-75
2021/04/19 20:36:08;;;;;;;22.65;16.35;;;;;;;9.99;58.09;97761.81;10442934;28;20445;-75
2021/04/19 20:41:31;;;;;;;23.15;17.20;;;;;;;10.00;58.46;97760.47;10442861;28;20037;-76
2021/04/19 20:46:51;;;;;;;22.45;16.65;;;;;;;9.99;58.52;97756.22;10443562;28;20584;-75
2021/04/19 20:52:12;;;;;;;25.77;17.52;;;;;;;9.97;58.67;97744.94;10456725;28;20045;-76
2021/04/19 20:57:33;;;;;;;24.13;17.85;;;;;;;9.96;59.48;97737.91;10455505;28;20048;-76
2021/04/19 21:02:53;;;;;;;26.85;17.55;;;;;;;9.93;58.85;97735.53;10444648;28;20045;-75
2021/04/19 21:08:14;;;;;;;26.77;17.98;;;;;;;9.95;59.51;97742.00;10435558;28;20123;-75
2021/04/19 21:13:35;;;;;;;23.15;16.20;;;;;;;9.92;59.04;97736.88;10463172;28;20041;-75
2021/04/19 21:18:55;;;;;;;23.60;15.95;;;;;;;9.84;59.46;97725.88;10448398;28;20049;-75
2021/04/19 21:24:15;;;;;;;25.67;18.30;;;;;;;9.76;60.17;97725.34;10462684;28;20041;-75
2021/04/19 21:29:36;;;;;;;22.65;17.23;;;;;;;9.71;60.10;97737.50;10462467;28;20045;-75
2021/04/19 21:34:57;;;;;;;25.02;17.17;;;;;;;9.69;60.23;97734.59;10462065;28;20075;-75
2021/04/19 21:40:19;;;;;;;24.83;16.70;;;;;;;9.71;60.64;97740.28;10451111;28;20068;-75
2021/04/19 21:45:39;;;;;;;28.35;17.52;;;;;;;9.78;60.17;97741.47;10461895;28;20128;-75
2021/04/19 21:51:00;;;;;;;24.73;17.45;;;;;;;9.75;60.69;97744.13;10420032;28;20057;-75
2021/04/19 21:56:21;;;;;;;26.50;17.05;;;;;;;9.72;61.17;97731.34;10461541;28;20128;-76
2021/04/19 22:01:42;;;;;;;26.77;17.52;;;;;;;9.71;61.28;97737.50;10434047;28;20102;-75
2021/04/19 22:07:03;;;;;;;25.27;17.80;;;;;;;9.74;61.07;97739.09;10433950;28;20049;-75
2021/04/19 22:12:23;;;;;;;25.70;17.40;;;;;;;9.70;60.90;97736.78;10447287;28;20751;-76
2021/04/19 22:17:43;;;;;;;22.58;16.40;;;;;;;9.72;61.35;97733.41;10446665;28;20128;-76
2021/04/19 22:23:05;;;;;;;23.73;16.77;;;;;;;9.68;61.91;97733.13;10446323;28;20040;-76
2021/04/19 22:28:25;;;;;;;21.65;15.80;;;;;;;9.70;61.53;97747.19;10460003;28;20077;-76
2021/04/19 22:33:46;;;;;;;22.83;16.48;;;;;;;9.67;61.56;97751.16;10445705;28;20041;-75
2021/04/19 22:39:06;;;;;;;23.50;16.30;;;;;;;9.64;61.97;97739.13;10445669;28;20116;-75
2021/04/19 22:44:27;;;;;;;22.10;15.25;;;;;;;9.63;62.77;97748.06;10432182;28;20049;-76
2021/04/19 22:49:48;;;;;;;22.77;15.45;;;;;;;9.59;62.49;97742.22;10459861;28;20395;-75
2021/04/19 22:55:11;;;;;;;23.25;15.60;;;;;;;9.53;62.38;97742.53;10432321;28;20484;-76
2021/04/19 23:00:32;;;;;;;20.37;14.43;;;;;;;9.50;62.75;97735.34;10446482;28;20059;-75
2021/04/19 23:05:53;;;;;;;18.70;13.02;;;;;;;9.44;62.81;97727.28;10444914;28;20064;-75
2021/04/19 23:11:13;;;;;;;17.77;12.20;;;;;;;9.40;63.45;97718.63;10444668;28;20388;-75
2021/04/19 23:16:35;;;;;;;16.25;11.73;;;;;;;9.37;63.33;97713.53;10443988;28;20078;-75
2021/04/19 23:21:56;;;;;;;16.23;12.07;;;;;;;9.35;63.36;97710.56;10444517;28;20553;-75
2021/04/19 23:27:16;;;;;;;14.25;10.70;;;;;;;9.34;63.91;97701.47;10430003;28;20055;-76
2021/04/19 23:32:37;;;;;;;15.52;10.93;;;;;;;9.33;64.28;97694.44;10443816;28;20463;-75
2021/04/19 23:37:58;;;;;;;14.27;10.15;;;;;;;9.30;64.17;97684.50;10443974;28;20384;-76
2021/04/19 23:43:19;;;;;;;14.63;10.13;;;;;;;9.23;64.30;97688.16;10429610;28;20438;-75
2021/04/19 23:48:39;;;;;;;15.80;9.27;;;;;;;9.22;64.63;97683.91;10457528;28;20056;-75
2021/04/19 23:54:01;;;;;;;18.65;11.77;;;;;;;9.14;65.52;97680.53;10429250;28;20123;-75
2021/04/19 23:59:21;;;;;;;15.80;11.27;;;;;;;9.07;65.02;97684.19;10428953;28;20052;-76
